METAR Data
IDs: Format: Raw Decoded Include TAF

Data at: 2349 UTC 24 Apr 2019

METAR for:KEBS (Webster City Muni, IA, US)
Text:KEBS 242335Z AUTO 19008KT 10SM CLR 22/04 A2974 RMK AO2
Temperature: 22.0°C ( 72°F)
Dewpoint: 4.0°C ( 39°F) [RH = 31%]
Pressure (altimeter):29.74 inches Hg (1007.2 mb)
Winds:from the S (190 degrees) at 9 MPH (8 knots; 4.1 m/s)
Visibility:10 or more sm (16+ km)
Ceiling:at least 12,000 feet AGL
Clouds:sky clear below 12,000 feet AGL
QC Flag:automated observation with no human augmentation